Gas Leo — VRPQ3 — position and weather

sailwx.info

Track history (hours):
 
Tides and Currents Weather Stations Pressure Air Temp Water Temp Dewpoint Dewpoint Depression Visibility Wind Speed Wind Dir Waves Ship Positions

Gas Leo

Last reported at 2017-Oct-19 05:45 UTC. Time now 2017-Oct-20 12:38 UTC.
Position N 25°30' W 079°35'.

Length 226 m; draft 8.2 m.

Type: Ship. MMSI: 477654800.

Date/timePositionNaut miles runAvg speedWind from/ knotsBaromVisibWave heightAir tempDewpointWater temp
2017-Oct-19 05:45N 25°30' W 079°35'313.7
2017-Oct-19 05:30N 25°33' W 079°34'713.7
2017-Oct-19 05:00N 25°40' W 079°33'1013.8
2017-Oct-19 04:19N 25°49' W 079°31'414.0
2017-Oct-19 04:00N 25°54' W 079°30'814.0
2017-Oct-19 03:28N 26°01' W 079°28'614.2
2017-Oct-19 03:00N 26°07' W 079°27'613.0
2017-Oct-19 02:31N 26°12' W 079°22'714.9
2017-Oct-19 02:01N 26°16' W 079°15'  
2017-Oct-12 08:36N 40°03' W 032°44'715.7
2017-Oct-12 08:11N 40°06' W 032°37'415.6
2017-Oct-12 07:54N 40°08' W 032°32'12115.3
2017-Oct-11 23:59N 41°08' W 030°12'1715.3
2017-Oct-11 22:51N 41°16' W 029°52'515.4
2017-Oct-11 22:30N 41°19' W 029°46'815.5
2017-Oct-11 22:00N 41°22' W 029°37'  
Track history (hours):
 
Tides and Currents Weather Stations Pressure Air Temp Water Temp Dewpoint Dewpoint Depression Visibility Wind Speed Wind Dir Waves Ship Positions

Gas Leo

Last reported at 2017-Oct-19 05:45 UTC. Time now 2017-Oct-20 12:38 UTC.
Position N 25°30' W 079°35'.

Length 226 m; draft 8.2 m.

Type: Ship. MMSI: 477654800.

Date/timePositionNaut miles runAvg speedWind from/ knotsBaromVisibWave heightAir tempDewpointWater temp
2017-Oct-19 05:45N 25°30' W 079°35'313.7
2017-Oct-19 05:30N 25°33' W 079°34'713.7
2017-Oct-19 05:00N 25°40' W 079°33'1013.8
2017-Oct-19 04:19N 25°49' W 079°31'414.0
2017-Oct-19 04:00N 25°54' W 079°30'814.0
2017-Oct-19 03:28N 26°01' W 079°28'614.2
2017-Oct-19 03:00N 26°07' W 079°27'613.0
2017-Oct-19 02:31N 26°12' W 079°22'714.9
2017-Oct-19 02:01N 26°16' W 079°15'  
2017-Oct-12 08:36N 40°03' W 032°44'715.7
2017-Oct-12 08:11N 40°06' W 032°37'415.6
2017-Oct-12 07:54N 40°08' W 032°32'12115.3
2017-Oct-11 23:59N 41°08' W 030°12'1715.3
2017-Oct-11 22:51N 41°16' W 029°52'515.4
2017-Oct-11 22:30N 41°19' W 029°46'815.5
2017-Oct-11 22:00N 41°22' W 029°37'  

Dump ship's entire track history